createdAt,value
2018-11-14T00:00:12.527Z,12.50
2018-11-14T00:02:46.034Z,17.53
2018-11-14T00:05:19.519Z,14.80
2018-11-14T00:07:53.407Z,15.93
2018-11-14T00:10:26.386Z,15.17
2018-11-14T00:12:59.160Z,11.57
2018-11-14T00:15:35.890Z,15.57
2018-11-14T00:18:08.641Z,14.57
2018-11-14T00:20:42.445Z,13.37
2018-11-14T00:23:19.071Z,13.17
2018-11-14T00:25:53.046Z,14.20
2018-11-14T00:28:26.197Z,16.20
2018-11-14T00:31:00.626Z,12.60
2018-11-14T00:33:34.256Z,13.20
2018-11-14T00:36:07.319Z,14.00
2018-11-14T00:38:40.231Z,18.77
2018-11-14T00:41:12.774Z,13.53
2018-11-14T00:43:45.304Z,17.77
2018-11-14T00:46:19.213Z,18.47
2018-11-14T00:48:51.780Z,13.93
2018-11-14T00:51:25.614Z,16.07
2018-11-14T00:53:58.676Z,14.80
2018-11-14T00:56:32.172Z,15.48
2018-11-14T00:59:06.220Z,12.43
2018-11-14T01:01:40.021Z,16.87
2018-11-14T01:04:12.917Z,16.50
2018-11-14T01:06:45.581Z,17.60
2018-11-14T01:09:20.991Z,15.10
2018-11-14T01:11:54.582Z,17.53
2018-11-14T01:14:27.289Z,15.13
2018-11-14T01:17:00.088Z,12.87
2018-11-14T01:19:32.864Z,16.47
2018-11-14T01:22:08.146Z,17.20
2018-11-14T01:24:40.966Z,17.27
2018-11-14T01:27:13.586Z,13.80
2018-11-14T01:29:46.737Z,16.20
2018-11-14T01:32:20.266Z,18.33
2018-11-14T01:34:55.473Z,14.80
2018-11-14T01:37:28.381Z,15.60
2018-11-14T01:40:00.967Z,12.83
2018-11-14T01:42:34.323Z,15.23
2018-11-14T01:45:10.463Z,16.70
2018-11-14T01:47:45.540Z,15.93
2018-11-14T01:50:19.680Z,15.83
2018-11-14T01:52:52.233Z,17.77
2018-11-14T01:55:24.762Z,20.07
2018-11-14T01:58:02.426Z,16.73
2018-11-14T02:00:35.180Z,19.90
2018-11-14T02:03:07.892Z,14.30
2018-11-14T02:05:41.287Z,15.27
2018-11-14T02:08:13.777Z,14.57
2018-11-14T02:10:51.261Z,15.77
2018-11-14T02:13:24.236Z,14.67
2018-11-14T02:15:56.765Z,15.87
2018-11-14T02:18:30.954Z,15.50
2018-11-14T02:21:03.913Z,19.90
2018-11-14T02:23:36.781Z,17.20
2018-11-14T02:26:09.431Z,20.50
2018-11-14T02:28:43.446Z,20.10
2018-11-14T02:31:16.286Z,18.97
2018-11-14T02:33:49.234Z,18.37
2018-11-14T02:36:22.187Z,14.70
2018-11-14T02:38:54.859Z,20.23
2018-11-14T02:41:27.370Z,18.10
2018-11-14T02:44:00.302Z,22.07
2018-11-14T02:46:34.192Z,20.27
2018-11-14T02:49:07.568Z,23.47
2018-11-14T02:51:41.412Z,20.43
2018-11-14T02:54:13.959Z,22.57
2018-11-14T02:56:48.373Z,19.47
2018-11-14T02:59:21.365Z,16.50
2018-11-14T03:01:53.885Z,18.80
2018-11-14T03:04:27.750Z,17.00
2018-11-14T03:07:00.936Z,18.40
2018-11-14T03:09:34.017Z,16.67
2018-11-14T03:12:09.586Z,24.00
2018-11-14T03:14:42.788Z,19.60
2018-11-14T03:17:15.913Z,21.10
2018-11-14T03:19:48.534Z,21.03
2018-11-14T03:22:23.966Z,15.70
2018-11-14T03:24:57.330Z,17.93
2018-11-14T03:27:29.923Z,16.43
2018-11-14T03:30:06.377Z,19.07
2018-11-14T03:32:39.553Z,20.53
2018-11-14T03:35:12.939Z,18.57
2018-11-14T03:37:45.776Z,18.33
2018-11-14T03:40:18.319Z,19.27
2018-11-14T03:42:50.928Z,19.07
2018-11-14T03:45:23.950Z,19.10
2018-11-14T03:47:56.476Z,20.50
2018-11-14T03:50:29.128Z,19.33
2018-11-14T03:53:03.310Z,20.77
2018-11-14T03:55:37.277Z,13.83
2018-11-14T03:58:09.864Z,19.08
2018-11-14T04:00:42.925Z,18.13
2018-11-14T04:03:15.665Z,19.00
2018-11-14T04:05:48.492Z,19.57
2018-11-14T04:08:21.693Z,17.57
2018-11-14T04:10:54.198Z,21.77
2018-11-14T04:13:27.613Z,19.60
2018-11-14T04:16:01.307Z,18.43
2018-11-14T04:18:34.026Z,18.33
2018-11-14T04:21:06.999Z,21.20
2018-11-14T04:23:55.913Z,18.33
2018-11-14T04:26:28.455Z,24.97
2018-11-14T04:29:01.135Z,18.40
2018-11-14T04:31:34.130Z,22.00
2018-11-14T04:34:08.779Z,26.57
2018-11-14T04:36:42.053Z,23.37
2018-11-14T04:39:15.171Z,21.70
2018-11-14T04:41:47.837Z,23.73
2018-11-14T04:44:20.453Z,20.40
2018-11-14T04:46:53.365Z,16.60
2018-11-14T04:49:26.042Z,19.13
2018-11-14T04:52:00.312Z,18.23
2018-11-14T04:54:36.245Z,22.50
2018-11-14T04:57:09.489Z,26.57
2018-11-14T04:59:42.504Z,16.87
2018-11-14T05:02:16.711Z,17.10
2018-11-14T05:04:50.749Z,13.57
2018-11-14T05:07:23.449Z,18.57
2018-11-14T05:09:56.257Z,19.20
2018-11-14T05:12:30.342Z,20.47
2018-11-14T05:15:04.873Z,19.47
2018-11-14T05:17:38.990Z,18.50
2018-11-14T05:20:13.308Z,19.93
2018-11-14T05:22:46.162Z,17.57
2018-11-14T05:25:20.922Z,17.87
2018-11-14T05:27:53.542Z,17.60
2018-11-14T05:30:26.186Z,18.13
2018-11-14T05:33:00.835Z,22.30
2018-11-14T05:35:33.540Z,17.27
2018-11-14T05:38:06.531Z,18.43
2018-11-14T05:40:40.587Z,17.63
2018-11-14T05:43:16.881Z,20.80
2018-11-14T05:45:49.958Z,24.47
2018-11-14T05:48:27.343Z,23.27
2018-11-14T05:51:01.814Z,20.43
2018-11-14T05:53:36.743Z,24.07
2018-11-14T05:56:09.690Z,25.60
2018-11-14T05:58:42.433Z,22.62
2018-11-14T06:01:15.047Z,18.77
2018-11-14T06:03:49.540Z,19.63
2018-11-14T06:06:24.006Z,19.73
2018-11-14T06:09:00.562Z,23.50
2018-11-14T06:11:33.790Z,17.70
2018-11-14T06:14:07.019Z,20.00
2018-11-14T06:16:43.658Z,19.53
2018-11-14T06:19:19.453Z,20.17
2018-11-14T06:21:52.335Z,19.03
2018-11-14T06:24:25.074Z,21.37
2018-11-14T06:27:00.479Z,20.03
2018-11-14T06:29:33.682Z,16.87
2018-11-14T06:32:07.069Z,19.63
2018-11-14T06:34:40.234Z,16.40
2018-11-14T06:37:12.890Z,17.37
2018-11-14T06:39:45.601Z,18.37
2018-11-14T06:42:19.619Z,19.30
2018-11-14T06:44:53.412Z,18.70
2018-11-14T06:47:26.329Z,17.30
2018-11-14T06:49:59.261Z,14.47
2018-11-14T06:52:33.462Z,23.75
2018-11-14T06:55:09.164Z,18.17
2018-11-14T06:57:42.543Z,18.87
2018-11-14T07:00:23.501Z,22.47
2018-11-14T07:02:58.142Z,20.07
2018-11-14T07:05:31.664Z,18.30
2018-11-14T07:08:05.961Z,16.43
2018-11-14T07:10:39.157Z,23.43
2018-11-14T07:13:12.578Z,23.47
2018-11-14T07:15:49.123Z,18.07
2018-11-14T07:18:22.858Z,15.50
2018-11-14T07:20:55.965Z,22.77
2018-11-14T07:23:29.790Z,15.73
2018-11-14T07:26:03.351Z,13.90
2018-11-14T07:28:36.354Z,15.80
2018-11-14T07:31:11.454Z,15.70
2018-11-14T07:33:44.147Z,17.67
2018-11-14T07:36:16.916Z,14.40
2018-11-14T07:38:52.562Z,17.30
2018-11-14T07:41:40.353Z,17.47
2018-11-14T07:44:13.500Z,12.40
2018-11-14T07:46:50.047Z,11.88
2018-11-14T07:49:23.315Z,15.47
2018-11-14T07:55:06.882Z,12.00
2018-11-14T07:57:42.435Z,12.10
2018-11-14T08:00:17.030Z,10.50
2018-11-14T08:02:51.725Z,13.27
2018-11-14T08:05:24.623Z,18.63
2018-11-14T08:07:57.865Z,14.40
2018-11-14T08:10:33.642Z,14.55
2018-11-14T08:13:08.814Z,13.27
2018-11-14T08:15:45.224Z,11.40
2018-11-14T08:18:22.261Z,14.13
2018-11-14T08:20:57.238Z,14.37
2018-11-14T08:23:35.706Z,9.57
2018-11-14T08:26:09.644Z,15.07
2018-11-14T08:28:44.644Z,19.20
2018-11-14T08:31:18.671Z,9.70
2018-11-14T08:33:52.680Z,12.63
2018-11-14T08:36:26.942Z,12.73
2018-11-14T08:39:00.680Z,13.33
2018-11-14T08:41:36.395Z,12.30
2018-11-14T08:44:10.309Z,10.30
2018-11-14T08:46:44.725Z,13.53
2018-11-14T08:49:19.210Z,13.27
2018-11-14T08:51:54.410Z,11.47
2018-11-14T08:54:29.331Z,13.27
2018-11-14T08:57:04.183Z,7.70
2018-11-14T08:59:37.653Z,12.93
2018-11-14T09:02:10.215Z,10.27
2018-11-14T09:04:46.389Z,11.73
2018-11-14T09:07:20.565Z,10.30
2018-11-14T09:09:54.405Z,10.90
2018-11-14T09:12:30.250Z,11.70
2018-11-14T09:15:09.288Z,14.10
2018-11-14T09:17:47.397Z,9.18
2018-11-14T09:20:23.830Z,16.93
2018-11-14T09:22:56.494Z,10.50
2018-11-14T09:25:32.281Z,11.23
2018-11-14T09:28:07.760Z,9.43
2018-11-14T09:30:44.898Z,9.68
2018-11-14T09:33:35.886Z,12.13
2018-11-14T09:36:11.690Z,9.23
2018-11-14T09:38:52.370Z,8.33
2018-11-14T09:41:28.593Z,12.10
2018-11-14T09:44:02.412Z,9.97
2018-11-14T09:46:35.994Z,11.87
2018-11-14T09:51:46.136Z,9.83
2018-11-14T09:54:20.250Z,11.73
2018-11-14T09:56:54.986Z,9.47
2018-11-14T09:59:28.016Z,9.83
2018-11-14T10:02:02.856Z,6.23
2018-11-14T10:04:38.252Z,7.80
2018-11-14T10:07:12.440Z,9.30
2018-11-14T10:09:48.452Z,7.27
2018-11-14T10:12:28.167Z,9.73
2018-11-14T10:15:07.398Z,8.97
2018-11-14T10:17:45.798Z,7.93
2018-11-14T10:20:23.527Z,7.30
2018-11-14T10:23:01.850Z,9.10
2018-11-14T10:25:38.878Z,8.53
2018-11-14T10:28:11.954Z,6.20
2018-11-14T10:30:46.172Z,7.57
2018-11-14T10:33:19.959Z,7.17
2018-11-14T10:35:55.423Z,7.93
2018-11-14T10:38:31.022Z,6.90
2018-11-14T10:41:04.510Z,10.50
2018-11-14T10:43:42.092Z,7.20
2018-11-14T10:46:34.204Z,12.33
2018-11-14T10:49:08.109Z,5.83
2018-11-14T10:51:48.902Z,6.03
2018-11-14T10:54:22.955Z,9.47
2018-11-14T10:56:55.961Z,8.93
2018-11-14T10:59:33.189Z,6.18
2018-11-14T11:02:13.437Z,9.67
2018-11-14T11:04:53.532Z,6.77
2018-11-14T11:07:33.735Z,5.57
2018-11-14T11:10:13.498Z,7.73
2018-11-14T11:12:53.200Z,6.70
2018-11-14T11:15:50.101Z,5.00
2018-11-14T11:18:25.723Z,7.00
2018-11-14T11:21:00.394Z,6.33
2018-11-14T11:23:34.757Z,6.23
2018-11-14T11:26:09.906Z,6.03
2018-11-14T11:28:44.172Z,6.77
2018-11-14T11:31:20.104Z,5.70
2018-11-14T11:33:55.756Z,6.95
2018-11-14T11:36:29.986Z,6.93
2018-11-14T11:39:10.476Z,6.40
2018-11-14T11:41:45.242Z,5.17
2018-11-14T11:44:19.819Z,7.40
2018-11-14T11:46:55.917Z,4.95
2018-11-14T11:49:29.315Z,5.10
2018-11-14T11:52:05.513Z,4.77
2018-11-14T11:54:38.345Z,6.00
2018-11-14T11:57:20.615Z,8.53
2018-11-14T11:59:53.913Z,5.40
2018-11-14T12:02:28.983Z,5.53
2018-11-14T12:05:03.637Z,8.30
2018-11-14T12:07:41.295Z,7.77
2018-11-14T12:10:15.014Z,7.93
2018-11-14T12:12:48.256Z,7.67
2018-11-14T12:15:21.270Z,8.33
2018-11-14T12:17:56.073Z,4.00
2018-11-14T12:20:31.545Z,4.97
2018-11-14T12:23:14.421Z,4.53
2018-11-14T12:25:56.749Z,4.80
2018-11-14T12:28:32.380Z,6.87
2018-11-14T12:31:09.342Z,8.07
2018-11-14T12:33:44.296Z,4.70
2018-11-14T12:36:17.992Z,3.97
2018-11-14T12:38:52.782Z,3.93
2018-11-14T12:41:28.658Z,6.63
2018-11-14T12:44:01.280Z,6.07
2018-11-14T12:46:37.669Z,5.17
2018-11-14T12:49:10.666Z,6.00
2018-11-14T12:51:46.736Z,5.10
2018-11-14T12:54:19.389Z,4.60
2018-11-14T12:56:54.077Z,6.87
2018-11-14T12:59:32.338Z,4.73
2018-11-14T13:02:07.338Z,4.33
2018-11-14T13:04:44.653Z,6.33
2018-11-14T13:07:18.453Z,5.90
2018-11-14T13:09:52.428Z,6.10
2018-11-14T13:12:30.632Z,7.90
2018-11-14T13:15:06.533Z,4.60
2018-11-14T13:17:39.913Z,4.83
2018-11-14T13:20:17.878Z,5.13
2018-11-14T13:22:52.721Z,5.80
2018-11-14T13:25:30.873Z,5.70
2018-11-14T13:28:06.065Z,5.57
2018-11-14T13:30:40.082Z,5.17
2018-11-14T13:33:17.823Z,6.40
2018-11-14T13:35:58.762Z,5.37
2018-11-14T13:38:33.738Z,4.23
2018-11-14T13:41:09.827Z,3.83
2018-11-14T13:43:46.947Z,5.20
2018-11-14T13:46:20.283Z,5.03
2018-11-14T13:48:56.388Z,4.70
2018-11-14T13:51:34.810Z,5.83
2018-11-14T13:54:10.681Z,5.30
2018-11-14T13:56:45.132Z,4.53
2018-11-14T13:59:19.832Z,7.93
2018-11-14T14:01:57.443Z,5.47
2018-11-14T14:04:35.577Z,6.82
2018-11-14T14:07:10.307Z,8.53
2018-11-14T14:09:44.807Z,4.10
2018-11-14T14:12:23.744Z,5.17
2018-11-14T14:14:57.346Z,4.03
2018-11-14T14:17:32.959Z,5.70
2018-11-14T14:20:09.159Z,5.70
2018-11-14T14:22:52.027Z,7.87
2018-11-14T14:25:31.008Z,5.67
2018-11-14T14:28:10.231Z,4.37
2018-11-14T14:30:47.727Z,6.60
2018-11-14T14:33:23.140Z,5.80
2018-11-14T14:36:01.644Z,4.63
2018-11-14T14:38:38.353Z,7.37
2018-11-14T14:41:12.346Z,4.57
2018-11-14T14:43:50.355Z,6.10
2018-11-14T14:46:26.559Z,5.67
2018-11-14T14:49:01.516Z,4.57
2018-11-14T14:51:43.021Z,4.47
2018-11-14T14:54:26.834Z,7.80
2018-11-14T14:57:02.404Z,10.27
2018-11-14T14:59:43.521Z,6.57
2018-11-14T15:02:19.317Z,7.20
2018-11-14T15:04:53.718Z,5.80
2018-11-14T15:07:32.032Z,8.17
2018-11-14T15:10:18.591Z,7.13
2018-11-14T15:13:03.377Z,8.60
2018-11-14T15:15:39.608Z,5.03
2018-11-14T15:18:18.427Z,7.87
2018-11-14T15:20:54.738Z,4.37
2018-11-14T15:23:29.816Z,6.57
2018-11-14T15:26:08.414Z,5.53
2018-11-14T15:28:48.139Z,5.57
2018-11-14T15:31:22.159Z,5.13
2018-11-14T15:33:59.075Z,5.83
2018-11-14T15:36:36.605Z,7.97
2018-11-14T15:39:13.154Z,4.10
2018-11-14T15:41:51.371Z,4.82
2018-11-14T15:44:26.627Z,7.03
2018-11-14T15:47:09.615Z,5.80
2018-11-14T15:49:42.946Z,9.00
2018-11-14T15:52:16.747Z,7.97
2018-11-14T15:54:53.679Z,6.20
2018-11-14T15:57:27.118Z,5.95
2018-11-14T16:00:18.412Z,6.70
2018-11-14T16:02:54.306Z,5.47
2018-11-14T16:05:33.060Z,6.80
2018-11-14T16:08:15.676Z,8.37
2018-11-14T16:10:55.017Z,7.07
2018-11-14T16:13:30.023Z,5.87
2018-11-14T16:16:04.855Z,11.33
2018-11-14T16:18:43.111Z,5.33
2018-11-14T16:21:18.432Z,6.30
2018-11-14T16:23:53.761Z,6.97
2018-11-14T16:26:33.587Z,6.73
2018-11-14T16:29:10.012Z,4.27
2018-11-14T16:31:49.228Z,7.30
2018-11-14T16:34:36.170Z,7.17
2018-11-14T16:37:09.761Z,6.47
2018-11-14T16:39:50.536Z,7.40
2018-11-14T16:42:29.643Z,6.60
2018-11-14T16:45:13.564Z,7.83
2018-11-14T16:47:50.055Z,7.00
2018-11-14T16:50:27.221Z,5.43
2018-11-14T16:53:08.147Z,5.83
2018-11-14T16:55:45.396Z,6.97
2018-11-14T16:58:21.479Z,6.90
2018-11-14T17:00:55.455Z,7.23
2018-11-14T17:03:28.170Z,5.20
2018-11-14T17:06:03.576Z,5.50
2018-11-14T17:08:39.186Z,4.53
2018-11-14T17:11:15.862Z,5.40
2018-11-14T17:13:51.916Z,6.43
2018-11-14T17:16:29.355Z,6.37
2018-11-14T17:19:06.992Z,6.03
2018-11-14T17:21:42.024Z,7.53
2018-11-14T17:24:20.647Z,9.47
2018-11-14T17:26:57.017Z,6.63
2018-11-14T17:29:31.990Z,9.03
2018-11-14T17:32:07.764Z,6.67
2018-11-14T17:34:48.948Z,4.93
2018-11-14T17:37:24.465Z,6.80
2018-11-14T17:40:01.601Z,6.57
2018-11-14T17:42:43.559Z,7.30
2018-11-14T17:45:23.059Z,5.50
2018-11-14T17:48:00.090Z,8.23
2018-11-14T17:50:44.537Z,7.77
2018-11-14T17:53:26.113Z,8.30
2018-11-14T17:56:04.691Z,6.10
2018-11-14T17:58:38.694Z,7.05
2018-11-14T18:01:17.104Z,8.43
2018-11-14T18:03:54.664Z,6.23
2018-11-14T18:06:28.797Z,8.90
2018-11-14T18:09:04.465Z,36.53
2018-11-14T18:11:40.830Z,12.60
2018-11-14T18:14:26.529Z,10.63
2018-11-14T18:17:03.600Z,7.87
2018-11-14T18:19:41.525Z,5.03
2018-11-14T18:22:22.354Z,9.37
2018-11-14T18:25:03.346Z,6.60
2018-11-14T18:27:39.853Z,6.40
2018-11-14T18:30:24.783Z,5.63
2018-11-14T18:33:04.338Z,10.23
2018-11-14T18:35:43.140Z,7.97
2018-11-14T18:38:21.678Z,7.20
2018-11-14T18:41:04.032Z,6.83
2018-11-14T18:43:39.844Z,6.03
2018-11-14T18:46:17.235Z,15.57
2018-11-14T18:48:54.649Z,8.00
2018-11-14T18:51:32.234Z,6.57
2018-11-14T18:54:11.531Z,8.23
2018-11-14T18:56:45.857Z,7.50
2018-11-14T18:59:22.088Z,7.73
2018-11-14T19:01:56.425Z,9.53
2018-11-14T19:04:31.480Z,6.57
2018-11-14T19:07:08.518Z,6.47
2018-11-14T19:09:42.490Z,8.27
2018-11-14T19:12:27.748Z,9.67
2018-11-14T19:15:16.323Z,7.53
2018-11-14T19:17:52.123Z,6.27
2018-11-14T19:20:32.641Z,9.73
2018-11-14T19:23:07.392Z,9.80
2018-11-14T19:25:40.989Z,9.63
2018-11-14T19:28:15.485Z,6.97
2018-11-14T19:30:53.931Z,7.87
2018-11-14T19:33:28.737Z,10.03
2018-11-14T19:36:02.765Z,10.30
2018-11-14T19:38:39.825Z,13.17
2018-11-14T19:41:16.670Z,8.07
2018-11-14T19:43:59.916Z,8.93
2018-11-14T19:46:34.252Z,9.50
2018-11-14T19:49:16.927Z,10.83
2018-11-14T19:51:54.027Z,9.13
2018-11-14T19:54:31.454Z,8.80
2018-11-14T19:57:09.072Z,9.07
2018-11-14T19:59:49.665Z,9.23
2018-11-14T20:02:27.727Z,10.33
2018-11-14T20:05:04.778Z,10.03
2018-11-14T20:07:42.130Z,7.83
2018-11-14T20:10:18.008Z,11.83
2018-11-14T20:13:01.551Z,9.23
2018-11-14T20:15:43.633Z,10.82
2018-11-14T20:18:24.062Z,9.27
2018-11-14T20:21:02.807Z,9.75
2018-11-14T20:23:38.455Z,11.80
2018-11-14T20:26:12.343Z,9.97
2018-11-14T20:28:48.451Z,11.70
2018-11-14T20:31:29.171Z,10.20
2018-11-14T20:34:06.408Z,11.93
2018-11-14T20:36:39.690Z,12.30
2018-11-14T20:39:20.336Z,15.63
2018-11-14T20:41:55.282Z,14.40
2018-11-14T20:44:32.523Z,14.27
2018-11-14T20:47:12.411Z,19.50
2018-11-14T20:49:46.702Z,15.70
2018-11-14T20:52:36.537Z,15.77
2018-11-14T20:55:14.522Z,15.77
2018-11-14T20:57:49.877Z,16.57
2018-11-14T21:00:29.250Z,15.83
2018-11-14T21:03:06.625Z,19.13
2018-11-14T21:08:37.929Z,16.40
2018-11-14T21:11:19.637Z,15.37
2018-11-14T21:13:57.230Z,16.80
2018-11-14T21:16:30.994Z,16.50
2018-11-14T21:19:11.505Z,19.13
2018-11-14T21:21:45.311Z,18.03
2018-11-14T21:24:21.555Z,17.73
2018-11-14T21:26:57.513Z,16.50
2018-11-14T21:29:34.267Z,20.03
2018-11-14T21:32:09.960Z,18.37
2018-11-14T21:34:48.272Z,21.13
2018-11-14T21:37:22.353Z,18.87
2018-11-14T21:39:56.190Z,19.12
2018-11-14T21:42:35.706Z,17.93
2018-11-14T21:45:17.365Z,19.27
2018-11-14T21:47:57.353Z,23.90
2018-11-14T21:50:32.764Z,25.23
2018-11-14T21:53:09.888Z,21.13
2018-11-14T21:55:44.501Z,24.65
2018-11-14T21:58:22.532Z,24.53
2018-11-14T22:00:56.022Z,27.07
2018-11-14T22:03:31.387Z,25.97
2018-11-14T22:06:05.169Z,22.33
2018-11-14T22:08:41.681Z,27.37
2018-11-14T22:11:15.937Z,25.43
2018-11-14T22:13:50.167Z,28.53
2018-11-14T22:16:24.672Z,29.83
2018-11-14T22:19:01.302Z,29.00
2018-11-14T22:21:37.087Z,25.88
2018-11-14T22:24:11.955Z,30.30
2018-11-14T22:26:45.430Z,27.37
2018-11-14T22:29:18.382Z,33.17
2018-11-14T22:31:53.351Z,31.50
2018-11-14T22:34:29.873Z,30.93
2018-11-14T22:37:03.512Z,31.53
2018-11-14T22:39:38.826Z,31.67
2018-11-14T22:42:16.026Z,34.67
2018-11-14T22:44:50.207Z,37.90
2018-11-14T22:47:25.621Z,37.70
2018-11-14T22:49:59.341Z,42.23
2018-11-14T22:52:33.295Z,43.50
2018-11-14T22:55:10.565Z,43.90
2018-11-14T22:57:45.494Z,43.87
2018-11-14T23:00:26.899Z,43.67
2018-11-14T23:03:02.229Z,46.27
2018-11-14T23:05:38.956Z,46.40
2018-11-14T23:08:14.878Z,47.83
2018-11-14T23:10:49.393Z,44.08
2018-11-14T23:13:22.894Z,47.60
2018-11-14T23:15:59.352Z,48.30
2018-11-14T23:18:33.057Z,45.67
2018-11-14T23:21:07.021Z,51.80
2018-11-14T23:23:41.511Z,53.67
2018-11-14T23:26:15.839Z,45.90
2018-11-14T23:28:51.557Z,43.23
2018-11-14T23:31:26.661Z,46.23
2018-11-14T23:34:04.021Z,47.60
2018-11-14T23:36:37.370Z,49.90
2018-11-14T23:39:12.669Z,54.07
2018-11-14T23:41:48.432Z,52.40
2018-11-14T23:44:23.311Z,54.03
2018-11-14T23:46:56.045Z,48.22
2018-11-14T23:49:31.260Z,46.30
2018-11-14T23:52:06.233Z,53.70
2018-11-14T23:54:40.180Z,49.30
2018-11-14T23:57:13.677Z,48.65
2018-11-14T23:59:46.361Z,53.43
